首页
METAR-TAF:

METAR-TAF

机场 :

约翰斯敦, 宾夕法尼亚州, 美国

纬度: 40-18-58N, 经度: 078-50-02W, 海拔: 696米

当前天气观测

该预报发布于1小时和6分钟前的17:54 UTC
风速7节,风向东南
温度 13°C
湿度 88%
气压 1011 hPa
能見度: 16.1公里
阴天层高于600英尺

METAR: KJST 281754Z AUTO 14007KT 10SM OVC006 13/11 A2985 RMK AO2 LTG DSNT NE SLP109 60022 T01280106 10128 20094 58013

时间: 15:00 (19:00 UTC)

预报

该预报发布于31分钟前的18:29 UTC
预报有效从28日的 18点(UTC)到 29日的 18点(UTC)
风速8节,风向东南
能見度: 10公里
阴天层高于800英尺
从 28日的 2000点(UTC)
风速9节,风向南转西南
能見度: 4.8公里
阴天层高于300英尺
小雨, 轻雾
从 29日的 0000点(UTC)
风速8节,风向南转西南
能見度: 9.7公里
阴天层高于300英尺
小雨
从 29日的 0600点(UTC)
风速5节,风向
能見度: 6.4公里
阴天层高于300英尺
小雨, 轻雾
从 29日的 1300点(UTC)
风速10节,风向西南,有时为17节阵风
能見度: 8.0公里
阴天层高于2500英尺
轻雾
几率 30%
从 29日的 13点(UTC)到 29日的 16点(UTC)
能見度: 4.8公里
阴天层高于300英尺
小毛毛雨

TAF: KJST 281829Z 2818/2918 14008KT P6SM OVC008 FM282000 20009KT 3SM -RA BR OVC003 FM290000 21008KT 6SM -RA OVC003 FM290600 18005KT 4SM -RA BR OVC003 FM291300 22010G17KT 5SM BR OVC025 PROB30 2913/2916 3SM -DZ OVC003

超过4000个机场的气象观测和天气预报(METAR&TAF报告)。

可查询的气象台以黄色和红色小点在地图上表示。

将鼠标移到小点上方,可查看气象台名称。

然后点击查看天气观测和预报。

如需切换地图:点击带黑十字的绿色按钮放大地图;点击带横线的绿色按钮缩小地图;或者点击绿色箭头查看邻近地区的地图。


METAR-TAF: